createdAt,value
2017-07-12T00:00:52.263Z,77.20
2017-07-12T00:03:20.332Z,77.70
2017-07-12T00:05:48.424Z,77.80
2017-07-12T00:08:16.853Z,77.50
2017-07-12T00:10:45.558Z,76.70
2017-07-12T00:13:14.731Z,77.60
2017-07-12T00:15:43.137Z,77.40
2017-07-12T00:18:12.393Z,77.70
2017-07-12T00:20:40.828Z,77.80
2017-07-12T00:23:09.447Z,77.80
2017-07-12T00:25:37.869Z,77.40
2017-07-12T00:28:07.039Z,77.80
2017-07-12T00:30:35.453Z,77.60
2017-07-12T00:33:03.868Z,77.50
2017-07-12T00:35:32.508Z,77.80
2017-07-12T00:38:00.933Z,76.50
2017-07-12T00:40:29.335Z,76.60
2017-07-12T00:42:57.755Z,76.60
2017-07-12T00:45:26.169Z,76.60
2017-07-12T00:47:54.861Z,76.50
2017-07-12T00:50:23.283Z,76.40
2017-07-12T00:52:52.468Z,78.00
2017-07-12T00:55:21.647Z,78.20
2017-07-12T00:57:50.091Z,78.20
2017-07-12T01:00:18.570Z,79.00
2017-07-12T01:02:46.986Z,78.60
2017-07-12T01:05:15.409Z,78.80
2017-07-12T01:07:43.836Z,78.80
2017-07-12T01:10:12.237Z,78.60
2017-07-12T01:12:41.677Z,79.00
2017-07-12T01:15:10.106Z,78.90
2017-07-12T01:17:38.764Z,78.90
2017-07-12T01:20:07.205Z,79.00
2017-07-12T01:22:36.383Z,78.70
2017-07-12T01:25:05.724Z,79.20
2017-07-12T01:27:34.147Z,79.20
2017-07-12T01:30:02.556Z,78.90
2017-07-12T01:32:31.668Z,78.50
2017-07-12T01:35:00.093Z,78.20
2017-07-12T01:37:28.722Z,78.80
2017-07-12T01:39:57.192Z,78.10
2017-07-12T01:42:26.377Z,78.70
2017-07-12T01:44:55.057Z,78.60
2017-07-12T01:47:24.229Z,78.40
2017-07-12T01:49:52.360Z,78.40
2017-07-12T01:52:21.063Z,78.10
2017-07-12T01:54:49.456Z,78.50
2017-07-12T01:57:17.894Z,77.80
2017-07-12T01:59:45.957Z,76.60
2017-07-12T02:02:14.397Z,76.20
2017-07-12T02:04:42.817Z,76.70
2017-07-12T02:07:11.238Z,77.00
2017-07-12T02:09:39.657Z,76.80
2017-07-12T02:12:08.832Z,76.50
2017-07-12T02:14:37.453Z,76.20
2017-07-12T02:17:06.645Z,75.10
2017-07-12T02:19:35.309Z,75.80
2017-07-12T02:22:04.408Z,74.70
2017-07-12T02:24:33.588Z,75.60
2017-07-12T02:27:02.208Z,75.50
2017-07-12T02:29:30.713Z,75.50
2017-07-12T02:31:59.118Z,76.40
2017-07-12T02:34:27.609Z,75.50
2017-07-12T02:36:56.124Z,75.20
2017-07-12T02:39:24.569Z,74.60
2017-07-12T02:41:52.976Z,73.30
2017-07-12T02:44:22.183Z,74.00
2017-07-12T02:46:50.861Z,73.90
2017-07-12T02:49:20.030Z,74.80
2017-07-12T02:51:48.664Z,74.80
2017-07-12T02:54:17.080Z,75.50
2017-07-12T02:56:45.489Z,76.10
2017-07-12T02:59:14.689Z,76.20
2017-07-12T03:01:43.909Z,75.70
2017-07-12T03:04:13.788Z,76.40
2017-07-12T03:06:42.965Z,76.50
2017-07-12T03:09:11.382Z,75.50
2017-07-12T03:11:40.566Z,76.80
2017-07-12T03:14:09.749Z,76.50
2017-07-12T03:16:38.195Z,76.50
2017-07-12T03:19:06.600Z,76.40
2017-07-12T03:21:35.008Z,77.80
2017-07-12T03:24:04.316Z,78.20
2017-07-12T03:26:32.736Z,77.70
2017-07-12T03:29:01.387Z,78.00
2017-07-12T03:31:29.809Z,78.50
2017-07-12T03:33:58.209Z,77.80
2017-07-12T03:36:26.648Z,78.10
2017-07-12T03:38:55.061Z,78.00
2017-07-12T03:41:23.677Z,77.90
2017-07-12T03:43:52.096Z,78.50
2017-07-12T03:46:20.506Z,78.40
2017-07-12T03:48:48.939Z,78.50
2017-07-12T03:51:17.356Z,78.70
2017-07-12T03:53:45.964Z,80.20
2017-07-12T03:56:15.200Z,83.20
2017-07-12T03:58:43.611Z,83.10
2017-07-12T04:01:12.044Z,84.60
2017-07-12T04:03:40.443Z,85.60
2017-07-12T04:06:10.571Z,86.00
2017-07-12T04:08:38.985Z,86.00
2017-07-12T04:11:07.380Z,86.00
2017-07-12T04:13:36.927Z,86.40
2017-07-12T04:16:05.328Z,86.40
2017-07-12T04:18:34.167Z,86.20
2017-07-12T04:21:02.569Z,86.40
2017-07-12T04:23:30.974Z,86.60
2017-07-12T04:25:59.416Z,85.20
2017-07-12T04:28:27.901Z,85.50
2017-07-12T04:30:56.358Z,86.20
2017-07-12T04:33:24.781Z,86.30
2017-07-12T04:35:53.209Z,86.80
2017-07-12T04:38:22.408Z,86.00
2017-07-12T04:40:50.823Z,86.00
2017-07-12T04:43:19.686Z,85.50
2017-07-12T04:45:48.153Z,86.10
2017-07-12T04:48:16.559Z,86.40
2017-07-12T04:50:44.972Z,86.60
2017-07-12T04:53:13.397Z,87.30
2017-07-12T04:55:41.977Z,87.60
2017-07-12T04:58:10.390Z,88.00
2017-07-12T05:00:38.796Z,88.40
2017-07-12T05:03:07.223Z,90.20
2017-07-12T05:05:35.885Z,89.10
2017-07-12T05:08:05.221Z,90.10
2017-07-12T05:10:33.624Z,90.10
2017-07-12T05:13:02.027Z,90.20
2017-07-12T05:15:31.220Z,90.20
2017-07-12T05:17:59.627Z,90.40
2017-07-12T05:20:28.309Z,90.30
2017-07-12T05:22:56.729Z,90.20
2017-07-12T05:25:25.160Z,90.60
2017-07-12T05:27:54.352Z,90.80
2017-07-12T05:30:23.536Z,91.30
2017-07-12T05:32:51.980Z,91.30
2017-07-12T05:35:20.395Z,92.00
2017-07-12T05:37:49.590Z,91.70
2017-07-12T05:40:18.023Z,91.70
2017-07-12T05:42:47.474Z,91.50
2017-07-12T05:45:15.905Z,91.60
2017-07-12T05:47:44.336Z,90.80
2017-07-12T05:50:12.751Z,91.60
2017-07-12T05:52:41.192Z,91.60
2017-07-12T05:55:10.376Z,91.90
2017-07-12T05:57:38.809Z,91.80
2017-07-12T06:00:07.219Z,91.30
2017-07-12T06:02:35.640Z,91.30
2017-07-12T06:05:04.833Z,91.00
2017-07-12T06:07:34.021Z,91.30
2017-07-12T06:10:02.715Z,91.30
2017-07-12T06:12:31.904Z,91.80
2017-07-12T06:15:00.886Z,91.60
2017-07-12T06:17:29.317Z,91.60
2017-07-12T06:19:57.733Z,91.30
2017-07-12T06:22:26.180Z,91.80
2017-07-12T06:24:54.589Z,91.30
2017-07-12T06:27:23.018Z,91.10
2017-07-12T06:29:51.454Z,91.20
2017-07-12T06:32:19.868Z,91.40
2017-07-12T06:34:48.543Z,91.90
2017-07-12T06:37:16.969Z,91.30
2017-07-12T06:39:45.385Z,91.00
2017-07-12T06:42:13.809Z,91.20
2017-07-12T06:44:42.269Z,91.70
2017-07-12T06:47:11.472Z,90.70
2017-07-12T06:49:39.939Z,90.70
2017-07-12T06:52:08.615Z,90.70
2017-07-12T06:54:37.305Z,91.10
2017-07-12T06:57:06.481Z,90.90
2017-07-12T06:59:35.097Z,90.90
2017-07-12T07:02:03.788Z,91.10
2017-07-12T07:04:32.206Z,91.40
2017-07-12T07:07:00.892Z,91.40
2017-07-12T07:09:29.312Z,90.60
2017-07-12T07:11:58.926Z,91.40
2017-07-12T07:14:27.339Z,91.40
2017-07-12T07:16:55.764Z,91.10
2017-07-12T07:19:24.961Z,91.20
2017-07-12T07:21:54.141Z,91.90
2017-07-12T07:24:22.768Z,91.90
2017-07-12T07:26:51.176Z,92.00
2017-07-12T07:29:19.616Z,92.10
2017-07-12T07:31:48.299Z,91.70
2017-07-12T07:34:16.713Z,91.90
2017-07-12T07:36:45.369Z,91.80
2017-07-12T07:39:13.782Z,91.70
2017-07-12T07:41:42.196Z,91.60
2017-07-12T07:44:10.631Z,91.10
2017-07-12T07:46:39.282Z,91.40
2017-07-12T07:49:08.480Z,91.40
2017-07-12T07:51:37.649Z,91.10
2017-07-12T07:54:06.066Z,91.10
2017-07-12T07:56:34.757Z,91.30
2017-07-12T07:59:03.168Z,91.30
2017-07-12T08:01:31.804Z,91.40
2017-07-12T08:04:00.800Z,91.60
2017-07-12T08:06:29.230Z,91.60
2017-07-12T08:08:57.660Z,91.30
2017-07-12T08:11:26.077Z,91.10
2017-07-12T08:13:54.544Z,91.30
2017-07-12T08:16:22.975Z,91.40
2017-07-12T08:18:52.148Z,91.60
2017-07-12T08:21:20.575Z,91.60
2017-07-12T08:23:48.974Z,91.50
2017-07-12T08:26:17.625Z,91.40
2017-07-12T08:28:46.819Z,91.70
2017-07-12T08:31:16.009Z,91.70
2017-07-12T08:33:45.203Z,91.50
2017-07-12T08:36:14.384Z,91.90
2017-07-12T08:38:43.120Z,91.80
2017-07-12T08:41:11.539Z,92.00
2017-07-12T08:43:39.943Z,91.60
2017-07-12T08:46:09.129Z,91.90
2017-07-12T08:48:37.534Z,91.90
2017-07-12T08:51:06.873Z,92.10
2017-07-12T08:53:35.297Z,92.10
2017-07-12T08:56:04.480Z,91.80
2017-07-12T08:58:32.919Z,91.80
2017-07-12T09:01:01.316Z,91.70
2017-07-12T09:03:29.730Z,92.10
2017-07-12T09:05:58.951Z,91.90
2017-07-12T09:08:27.361Z,91.90
2017-07-12T09:10:56.800Z,92.30
2017-07-12T09:13:25.226Z,92.30
2017-07-12T09:15:53.655Z,92.10
2017-07-12T09:18:22.169Z,92.40
2017-07-12T09:20:50.593Z,92.40
2017-07-12T09:23:19.004Z,92.00
2017-07-12T09:33:13.496Z,92.00
2017-07-12T09:35:41.929Z,92.50
2017-07-12T09:38:11.111Z,92.20
2017-07-12T09:40:40.309Z,92.10
2017-07-12T09:43:09.536Z,92.00
2017-07-12T09:45:37.949Z,91.90
2017-07-12T09:48:06.385Z,91.90
2017-07-12T09:50:34.788Z,92.00
2017-07-12T09:53:03.199Z,92.30
2017-07-12T09:55:31.645Z,92.20
2017-07-12T09:58:00.060Z,91.60
2017-07-12T10:00:28.477Z,91.70
2017-07-12T10:02:56.897Z,91.90
2017-07-12T10:05:25.315Z,91.90
2017-07-12T10:07:54.500Z,92.00
2017-07-12T10:10:22.932Z,92.00
2017-07-12T10:12:51.840Z,91.70
2017-07-12T10:15:20.263Z,91.40
2017-07-12T10:17:49.596Z,90.50
2017-07-12T10:20:18.007Z,90.50
2017-07-12T10:22:46.424Z,91.10
2017-07-12T10:25:15.620Z,91.20
2017-07-12T10:27:44.796Z,91.10
2017-07-12T10:30:13.200Z,91.10
2017-07-12T10:32:42.405Z,91.00
2017-07-12T10:35:10.833Z,91.00
2017-07-12T10:37:39.270Z,91.20
2017-07-12T10:40:07.719Z,91.30
2017-07-12T10:42:36.138Z,91.00
2017-07-12T10:45:04.841Z,91.10
2017-07-12T10:47:33.248Z,91.30
2017-07-12T10:50:01.656Z,91.40
2017-07-12T10:52:30.855Z,90.90
2017-07-12T10:55:00.036Z,90.90
2017-07-12T10:57:29.263Z,91.60
2017-07-12T10:59:57.951Z,91.60
2017-07-12T11:02:26.530Z,91.40
2017-07-12T11:04:54.941Z,91.90
2017-07-12T11:07:23.352Z,92.10
2017-07-12T11:09:51.788Z,91.90
2017-07-12T11:12:20.206Z,92.10
2017-07-12T11:14:48.692Z,91.80
2017-07-12T11:17:17.087Z,91.90
2017-07-12T11:19:46.286Z,90.80
2017-07-12T11:22:15.510Z,91.40
2017-07-12T11:24:43.924Z,91.10
2017-07-12T11:27:12.349Z,91.40
2017-07-12T11:29:40.844Z,90.90
2017-07-12T11:32:09.249Z,90.70
2017-07-12T11:34:37.679Z,91.10
2017-07-12T11:37:06.853Z,90.70
2017-07-12T11:39:35.334Z,90.60
2017-07-12T11:42:03.772Z,90.10
2017-07-12T11:44:32.184Z,90.20
2017-07-12T11:47:00.628Z,90.20
2017-07-12T11:49:29.052Z,89.20
2017-07-12T11:51:57.771Z,88.50
2017-07-12T11:54:26.185Z,89.10
2017-07-12T11:56:54.594Z,90.10
2017-07-12T11:59:23.821Z,88.90
2017-07-12T12:01:52.237Z,88.80
2017-07-12T12:04:22.191Z,87.80
2017-07-12T12:06:50.629Z,87.60
2017-07-12T12:09:19.226Z,87.70
2017-07-12T12:11:47.695Z,88.20
2017-07-12T12:14:16.371Z,86.90
2017-07-12T12:16:44.904Z,87.80
2017-07-12T12:19:14.112Z,88.90
2017-07-12T12:21:42.544Z,88.90
2017-07-12T12:24:10.956Z,88.50
2017-07-12T12:26:40.253Z,88.90
2017-07-12T12:29:09.533Z,89.50
2017-07-12T12:31:37.974Z,89.50
2017-07-12T12:34:06.391Z,90.00
2017-07-12T12:36:34.813Z,90.50
2017-07-12T12:39:03.042Z,90.60
2017-07-12T12:41:31.521Z,91.40
2017-07-12T12:43:59.964Z,91.50
2017-07-12T12:46:28.624Z,91.80
2017-07-12T12:48:57.080Z,91.90
2017-07-12T12:51:25.515Z,92.70
2017-07-12T12:53:53.830Z,92.70
2017-07-12T12:56:22.156Z,90.90
2017-07-12T12:58:50.391Z,91.00
2017-07-12T13:01:19.592Z,91.20
2017-07-12T13:03:48.692Z,92.50
2017-07-12T13:06:27.732Z,92.20
2017-07-12T13:08:56.183Z,92.50
2017-07-12T13:11:24.607Z,92.20
2017-07-12T13:13:53.043Z,92.60
2017-07-12T13:16:21.469Z,93.00
2017-07-12T13:18:50.241Z,93.10
2017-07-12T13:21:18.668Z,93.40
2017-07-12T13:23:47.090Z,93.50
2017-07-12T13:26:15.538Z,93.20
2017-07-12T13:28:43.950Z,93.60
2017-07-12T13:31:12.638Z,93.70
2017-07-12T13:33:41.041Z,93.60
2017-07-12T13:36:10.574Z,93.60
2017-07-12T13:38:39.014Z,93.60
2017-07-12T13:41:20.764Z,92.90
2017-07-12T13:46:27.705Z,93.70
2017-07-12T13:49:02.205Z,93.70
2017-07-12T13:51:32.141Z,93.90
2017-07-12T13:54:00.723Z,93.80
2017-07-12T13:56:40.062Z,93.80
2017-07-12T13:59:10.626Z,94.60
2017-07-12T14:01:46.359Z,94.60
2017-07-12T14:04:22.024Z,94.40
2017-07-12T14:06:51.491Z,93.90
2017-07-12T14:09:23.438Z,93.20
2017-07-12T14:11:52.751Z,92.70
2017-07-12T14:14:29.015Z,92.20
2017-07-12T14:16:59.085Z,91.50
2017-07-12T14:19:31.631Z,91.00
2017-07-12T14:22:01.070Z,90.40
2017-07-12T14:24:32.045Z,90.70
2017-07-12T14:29:45.339Z,91.10
2017-07-12T14:32:14.853Z,91.20
2017-07-12T14:34:44.912Z,91.20
2017-07-12T14:37:17.336Z,91.50
2017-07-12T14:39:52.782Z,91.50
2017-07-12T14:42:27.275Z,90.90
2017-07-12T14:44:57.929Z,90.40
2017-07-12T14:50:09.963Z,90.40
2017-07-12T14:52:56.024Z,90.50
2017-07-12T14:55:26.568Z,91.10
2017-07-12T14:57:56.459Z,91.00
2017-07-12T15:00:25.313Z,91.00
2017-07-12T15:02:54.622Z,90.00
2017-07-12T15:05:23.101Z,89.50
2017-07-12T15:07:51.776Z,88.30
2017-07-12T15:10:21.525Z,87.30
2017-07-12T15:12:50.047Z,87.60
2017-07-12T15:15:20.610Z,88.90
2017-07-12T15:17:50.377Z,87.30
2017-07-12T15:20:19.774Z,87.20
2017-07-12T15:22:48.289Z,87.20
2017-07-12T15:25:25.147Z,84.70
2017-07-12T15:27:55.707Z,83.90
2017-07-12T15:30:29.319Z,84.80
2017-07-12T15:35:37.533Z,84.70
2017-07-12T15:38:08.209Z,83.60
2017-07-12T15:40:37.860Z,85.50
2017-07-12T15:43:11.569Z,87.30
2017-07-12T15:45:44.142Z,86.60
2017-07-12T15:48:16.965Z,86.00
2017-07-12T15:50:47.263Z,86.50
2017-07-12T15:53:18.129Z,84.60
2017-07-12T15:55:49.428Z,85.90
2017-07-12T15:58:18.007Z,85.90
2017-07-12T16:00:50.099Z,86.60
2017-07-12T16:03:22.550Z,86.40
2017-07-12T16:05:51.022Z,85.60
2017-07-12T16:08:21.045Z,85.50
2017-07-12T16:10:52.288Z,86.50
2017-07-12T16:13:20.664Z,85.50
2017-07-12T16:15:52.807Z,82.80
2017-07-12T16:18:25.539Z,83.10
2017-07-12T16:21:00.700Z,82.20
2017-07-12T16:23:29.226Z,82.90
2017-07-12T16:26:02.745Z,82.80
2017-07-12T16:31:06.290Z,82.50
2017-07-12T16:33:38.567Z,81.90
2017-07-12T16:36:08.474Z,81.90
2017-07-12T16:38:39.551Z,83.30
2017-07-12T16:41:08.755Z,82.90
2017-07-12T16:43:38.865Z,82.50
2017-07-12T16:48:44.327Z,83.10
2017-07-12T16:51:14.704Z,83.90
2017-07-12T16:53:44.528Z,83.40
2017-07-12T16:56:18.688Z,83.50
2017-07-12T17:01:22.755Z,83.90
2017-07-12T17:03:55.598Z,83.10
2017-07-12T17:06:27.589Z,82.70
2017-07-12T17:08:55.957Z,82.30
2017-07-12T17:11:26.657Z,81.90
2017-07-12T17:13:59.144Z,82.50
2017-07-12T17:16:27.606Z,82.70
2017-07-12T17:19:02.250Z,82.70
2017-07-12T17:21:38.525Z,80.90
2017-07-12T17:24:07.200Z,81.20
2017-07-12T17:26:37.350Z,79.30
2017-07-12T17:29:07.517Z,80.30
2017-07-12T17:34:12.051Z,80.20
2017-07-12T17:36:40.962Z,79.60
2017-07-12T17:39:12.384Z,79.90
2017-07-12T17:44:25.255Z,78.50
2017-07-12T17:46:55.742Z,78.00
2017-07-12T17:49:27.845Z,77.10
2017-07-12T17:52:06.781Z,78.10
2017-07-12T17:54:35.188Z,77.00
2017-07-12T17:57:07.975Z,75.40
2017-07-12T17:59:39.595Z,75.40
2017-07-12T18:02:12.151Z,75.20
2017-07-12T18:04:44.041Z,75.00
2017-07-12T18:07:14.507Z,75.30
2017-07-12T18:09:43.697Z,76.10
2017-07-12T18:12:12.823Z,75.90
2017-07-12T18:14:41.156Z,75.70
2017-07-12T18:17:11.938Z,76.90
2017-07-12T18:19:43.204Z,77.10
2017-07-12T18:22:12.722Z,77.50
2017-07-12T18:24:44.488Z,77.80
2017-07-12T18:27:17.227Z,79.10
2017-07-12T18:29:50.718Z,78.40
2017-07-12T18:32:23.177Z,78.50
2017-07-12T18:34:55.364Z,77.80
2017-07-12T18:37:32.161Z,78.00
2017-07-12T18:40:05.742Z,78.10
2017-07-12T18:42:34.532Z,78.10
2017-07-12T18:45:05.164Z,78.80
2017-07-12T18:47:35.457Z,78.10
2017-07-12T18:50:03.909Z,79.60
2017-07-12T18:52:32.851Z,79.50
2017-07-12T18:55:01.229Z,79.40
2017-07-12T18:57:29.640Z,79.20
2017-07-12T18:59:59.104Z,79.10
2017-07-12T19:02:27.554Z,78.60
2017-07-12T19:04:56.970Z,79.00
2017-07-12T19:07:26.187Z,78.80
2017-07-12T19:09:57.867Z,78.80
2017-07-12T19:12:26.428Z,80.00
2017-07-12T19:14:57.648Z,78.80
2017-07-12T19:17:26.773Z,79.30
2017-07-12T19:19:57.806Z,78.40
2017-07-12T19:22:26.284Z,77.70
2017-07-12T19:24:54.722Z,77.80
2017-07-12T19:27:23.577Z,78.50
2017-07-12T19:29:52.064Z,78.40
2017-07-12T19:32:20.725Z,78.50
2017-07-12T19:34:51.047Z,78.80
2017-07-12T19:37:20.508Z,78.30
2017-07-12T19:39:49.703Z,79.00
2017-07-12T19:42:18.735Z,78.50
2017-07-12T19:44:48.110Z,78.40
2017-07-12T19:47:17.277Z,77.80
2017-07-12T19:49:47.336Z,77.30
2017-07-12T19:52:16.691Z,77.60
2017-07-12T19:54:46.121Z,77.50
2017-07-12T19:57:14.798Z,76.70
2017-07-12T19:59:44.008Z,76.70
2017-07-12T20:02:14.555Z,76.70
2017-07-12T20:04:43.012Z,77.00
2017-07-12T20:07:12.196Z,77.00
2017-07-12T20:09:41.372Z,77.40
2017-07-12T20:12:09.486Z,76.60
2017-07-12T20:14:38.944Z,76.50
2017-07-12T20:17:07.393Z,77.40
2017-07-12T20:19:36.853Z,77.10
2017-07-12T20:22:07.082Z,76.10
2017-07-12T20:24:37.617Z,75.90
2017-07-12T20:27:06.104Z,75.20
2017-07-12T20:29:34.792Z,75.10
2017-07-12T20:32:03.283Z,74.90
2017-07-12T20:34:32.496Z,75.10
2017-07-12T20:37:00.931Z,75.50
2017-07-12T20:39:30.107Z,74.00
2017-07-12T20:41:58.577Z,74.00
2017-07-12T20:44:28.965Z,73.10
2017-07-12T20:46:57.406Z,72.80
2017-07-12T20:49:26.607Z,72.40
2017-07-12T20:51:55.809Z,72.50
2017-07-12T20:54:25.120Z,72.80
2017-07-12T20:56:53.553Z,72.80
2017-07-12T20:59:22.305Z,72.60
2017-07-12T21:01:50.753Z,73.10
2017-07-12T21:04:19.913Z,72.60
2017-07-12T21:06:48.349Z,72.50
2017-07-12T21:09:16.778Z,73.20
2017-07-12T21:11:45.217Z,73.40
2017-07-12T21:14:13.660Z,73.70
2017-07-12T21:16:42.848Z,72.50
2017-07-12T21:19:11.386Z,72.30
2017-07-12T21:21:39.479Z,72.50
2017-07-12T21:24:07.893Z,73.10
2017-07-12T21:26:37.097Z,73.00
2017-07-12T21:29:05.517Z,73.10
2017-07-12T21:31:33.969Z,73.30
2017-07-12T21:34:04.249Z,73.10
2017-07-12T21:36:32.938Z,73.00
2017-07-12T21:39:02.137Z,72.50
2017-07-12T21:41:31.337Z,73.40
2017-07-12T21:44:00.542Z,73.70
2017-07-12T21:46:28.962Z,73.70
2017-07-12T21:48:58.401Z,73.50
2017-07-12T21:51:26.853Z,73.50
2017-07-12T21:54:12.213Z,73.80
2017-07-12T21:56:57.795Z,74.70
2017-07-12T21:59:43.375Z,75.40
2017-07-12T22:02:28.567Z,75.50
2017-07-12T22:05:14.234Z,76.30
2017-07-12T22:07:59.471Z,76.00
2017-07-12T22:10:44.792Z,76.60
2017-07-12T22:13:30.206Z,77.50
2017-07-12T22:16:16.297Z,77.70
2017-07-12T22:19:01.661Z,77.30
2017-07-12T22:21:47.032Z,77.60
2017-07-12T22:24:32.234Z,77.80
2017-07-12T22:27:18.213Z,77.60
2017-07-12T22:30:04.294Z,78.60
2017-07-12T22:32:49.567Z,78.60
2017-07-12T22:35:35.323Z,77.80
2017-07-12T22:38:09.380Z,77.80
2017-07-12T22:40:44.237Z,78.90
2017-07-12T22:43:18.102Z,78.30
2017-07-12T22:45:46.875Z,78.50
2017-07-12T22:48:15.290Z,78.30
2017-07-12T22:50:45.725Z,79.20
2017-07-12T22:53:15.029Z,79.20
2017-07-12T22:55:43.444Z,78.80
2017-07-12T22:58:12.006Z,78.50
2017-07-12T23:00:40.420Z,79.20
2017-07-12T23:03:09.127Z,79.20
2017-07-12T23:05:37.840Z,78.60
2017-07-12T23:08:07.000Z,78.10
2017-07-12T23:10:36.563Z,78.10
2017-07-12T23:13:04.991Z,78.20
2017-07-12T23:15:33.522Z,78.00
2017-07-12T23:18:01.998Z,77.70
2017-07-12T23:20:30.443Z,77.90
2017-07-12T23:22:59.709Z,79.10
2017-07-12T23:25:28.159Z,78.30
2017-07-12T23:27:56.629Z,77.90
2017-07-12T23:30:25.089Z,77.80
2017-07-12T23:32:53.608Z,77.50
2017-07-12T23:35:22.096Z,77.80
2017-07-12T23:37:50.523Z,77.50
2017-07-12T23:40:19.703Z,77.10
2017-07-12T23:42:48.236Z,77.10
2017-07-12T23:45:16.646Z,77.50
2017-07-12T23:47:45.092Z,77.30
2017-07-12T23:50:13.547Z,77.60
2017-07-12T23:52:44.722Z,77.10
2017-07-12T23:55:15.068Z,77.50
2017-07-12T23:57:43.486Z,77.50
